메인 페이지
METAR-TAF:

METAR-TAF

공항 :

리우데자네이루 갈레앙 국제공항, 리우데자네이루, 브라질

위도: 22-49S, 경도: 043-15W, 고도: 6m

현재 날씨관측

예보는 27분 전, 08:00시(UTC)에 발표되었습니다.
3kt
온도 25°C
습도 83%
기압 1010 hPa
시정 10km 이상
고도 1500ft 상공 구름 조금

METAR: SBGL 010800Z 01003KT 9999 FEW015 25/22 Q1010

시각: 06:27 (08:27 UTC)

예보

예보는 7 시간 38분 전, 00:49시(UTC)에 발표되었습니다.
예보 대상 시간: 01일 06시부터 02일 12시까지 (UTC)
4kt
시정 10km 이상
고도 2000ft 상공 구름 조금
전환 중
01일 07시부터 01일 09시까지 (UTC)
북서7kt
전환 중
01일 16시부터 01일 18시까지 (UTC)
남동10kt
확률 30% :
일시적
01일 18시부터 01일 21시까지 (UTC)
남서10kt
시정: 4000m
고도 1500ft 상공 구름 많음
고도 3000ft 상공 구름 조금, 적란운.
뇌우, 비
전환 중
01일 22시부터 01일 24시까지 (UTC)
북북서5kt
전환 중
02일 08시부터 02일 10시까지 (UTC)
북동7kt

TAF: SBGL 010049Z 0106/0212 08004KT 9999 FEW020 TN24/0109Z TX33/0117Z BECMG 0107/0109 32007KT BECMG 0116/0118 14010KT PROB30 TEMPO 0118/0121 23010KT 4000 TSRA BKN015 FEW030CB BECMG 0122/0124 33005KT BECMG 0208/0210 05007KT RMK PHI

4,000개 이상의 공항 관측 자료 및 예보 (METAR 및 TAF 보고).

지도상에서 검색 가능한 기상관측소가 노란 점과 빨간 점으로 표시되어 있습니다.

기상관측소 명을 보려면 표시 위로 마우스를 이동하세요.

날씨 관측과 예보를 보려면 클릭하세요.

지도 변경 : 확대하려면 엑스 표시가 있는 녹색 버튼, 축소하려면 빼기 표시가 있는 녹색 버튼, 다음 페이지의 지도를 보려면 녹색 화살표를 클릭하세요.


METAR-TAF: